createdAt,value
2022-09-30T00:00:15.561Z,1002.59
2022-09-30T00:01:15.543Z,1002.60
2022-09-30T00:02:15.583Z,1002.53
2022-09-30T00:03:15.605Z,1002.61
2022-09-30T00:04:15.521Z,1002.64
2022-09-30T00:05:15.494Z,1002.65
2022-09-30T00:06:15.488Z,1002.61
2022-09-30T00:07:15.464Z,1002.67
2022-09-30T00:08:15.904Z,1002.69
2022-09-30T00:09:15.590Z,1002.68
2022-09-30T00:10:15.443Z,1002.69
2022-09-30T00:11:15.414Z,1002.69
2022-09-30T00:12:15.402Z,1002.69
2022-09-30T00:13:15.390Z,1002.68
2022-09-30T00:14:15.380Z,1002.71
2022-09-30T00:15:15.365Z,1002.76
2022-09-30T00:16:15.427Z,1002.68
2022-09-30T00:17:15.402Z,1002.72
2022-09-30T00:18:15.323Z,1002.67
2022-09-30T00:19:15.385Z,1002.73
2022-09-30T00:20:15.313Z,1002.73
2022-09-30T00:21:15.284Z,1002.75
2022-09-30T00:22:15.274Z,1002.72
2022-09-30T00:23:15.263Z,1002.79
2022-09-30T00:24:15.253Z,1002.73
2022-09-30T00:25:15.244Z,1002.77
2022-09-30T00:26:15.224Z,1002.81
2022-09-30T00:27:15.213Z,1002.83
2022-09-30T00:28:15.193Z,1002.82
2022-09-30T00:29:15.223Z,1002.78
2022-09-30T00:30:15.180Z,1002.81
2022-09-30T00:31:15.206Z,1002.80
2022-09-30T00:32:15.133Z,1002.83
2022-09-30T00:33:15.122Z,1002.86
2022-09-30T00:34:15.177Z,1002.87
2022-09-30T00:35:18.189Z,1002.84
2022-09-30T00:36:16.113Z,1002.83
2022-09-30T00:37:15.108Z,1002.85
2022-09-30T00:38:15.073Z,1002.87
2022-09-30T00:39:15.080Z,1002.85
2022-09-30T00:40:15.044Z,1002.88
2022-09-30T00:41:15.043Z,1002.81
2022-09-30T00:42:15.048Z,1002.84
2022-09-30T00:43:15.003Z,1002.78
2022-09-30T00:44:14.984Z,1002.85
2022-09-30T00:45:14.961Z,1002.78
2022-09-30T00:46:14.993Z,1002.86
2022-09-30T00:47:14.962Z,1002.79
2022-09-30T00:48:14.946Z,1002.80
2022-09-30T00:49:14.914Z,1002.83
2022-09-30T00:50:14.905Z,1002.84
2022-09-30T00:51:14.883Z,1002.85
2022-09-30T00:52:14.893Z,1002.90
2022-09-30T00:53:14.903Z,1002.82
2022-09-30T00:54:14.863Z,1002.91
2022-09-30T00:55:14.843Z,1002.92
2022-09-30T00:56:14.821Z,1002.89
2022-09-30T00:57:14.809Z,1002.84
2022-09-30T00:58:14.809Z,1002.94
2022-09-30T00:59:14.792Z,1002.84
2022-09-30T01:00:14.821Z,1002.89
2022-09-30T01:01:14.802Z,1002.84
2022-09-30T01:02:14.868Z,1002.87
2022-09-30T01:03:14.743Z,1002.88
2022-09-30T01:04:21.776Z,1002.91
2022-09-30T01:05:14.719Z,1002.90
2022-09-30T01:06:14.701Z,1002.95
2022-09-30T01:07:14.678Z,1002.90
2022-09-30T01:08:14.670Z,1002.93
2022-09-30T01:09:14.761Z,1002.95
2022-09-30T01:10:14.665Z,1002.97
2022-09-30T01:11:14.628Z,1002.97
2022-09-30T01:12:14.618Z,1002.95
2022-09-30T01:13:14.641Z,1002.98
2022-09-30T01:14:14.601Z,1002.98
2022-09-30T01:15:14.609Z,1003.00
2022-09-30T01:16:14.683Z,1003.02
2022-09-30T01:17:14.562Z,1002.97
2022-09-30T01:18:14.558Z,1002.99
2022-09-30T01:19:14.529Z,1003.01
2022-09-30T01:20:14.540Z,1002.96
2022-09-30T01:21:14.519Z,1002.92
2022-09-30T01:22:14.508Z,1002.99
2022-09-30T01:23:14.484Z,1003.01
2022-09-30T01:24:14.466Z,1002.95
2022-09-30T01:25:14.445Z,1002.99
2022-09-30T01:26:14.459Z,1003.03
2022-09-30T01:27:14.417Z,1002.97
2022-09-30T01:28:14.417Z,1003.05
2022-09-30T01:29:14.388Z,1003.09
2022-09-30T01:30:14.394Z,1003.06
2022-09-30T01:31:14.461Z,1003.09
2022-09-30T01:32:14.487Z,1003.11
2022-09-30T01:33:14.351Z,1003.07
2022-09-30T01:34:14.348Z,1003.05
2022-09-30T01:35:14.338Z,1003.06
2022-09-30T01:36:14.320Z,1003.05
2022-09-30T01:37:14.300Z,1003.03
2022-09-30T01:38:14.287Z,1003.11
2022-09-30T01:39:14.319Z,1003.10
2022-09-30T01:40:14.269Z,1003.15
2022-09-30T01:41:14.296Z,1003.12
2022-09-30T01:42:14.237Z,1003.09
2022-09-30T01:43:14.241Z,1003.05
2022-09-30T01:44:14.225Z,1003.07
2022-09-30T01:45:14.197Z,1003.01
2022-09-30T01:46:14.195Z,1003.07
2022-09-30T01:47:14.179Z,1003.06
2022-09-30T01:48:14.184Z,1003.05
2022-09-30T01:49:14.213Z,1003.08
2022-09-30T01:50:14.208Z,1003.10
2022-09-30T01:51:14.126Z,1003.06
2022-09-30T01:52:14.119Z,1003.08
2022-09-30T01:53:14.098Z,1003.03
2022-09-30T01:54:14.096Z,1003.03
2022-09-30T01:55:14.069Z,1002.99
2022-09-30T01:56:14.085Z,1003.05
2022-09-30T01:57:14.046Z,1003.04
2022-09-30T01:58:14.083Z,1003.05
2022-09-30T01:59:14.061Z,1003.03
2022-09-30T02:00:14.079Z,1003.06
2022-09-30T02:01:14.102Z,1003.03
2022-09-30T02:02:14.036Z,1002.99
2022-09-30T02:03:13.976Z,1003.05
2022-09-30T02:04:13.956Z,1003.06
2022-09-30T02:05:13.956Z,1003.01
2022-09-30T02:06:13.938Z,1003.02
2022-09-30T02:07:13.936Z,1002.99
2022-09-30T02:08:13.924Z,1002.99
2022-09-30T02:09:14.002Z,1003.00
2022-09-30T02:10:13.911Z,1002.95
2022-09-30T02:11:13.887Z,1002.95
2022-09-30T02:12:13.878Z,1002.97
2022-09-30T02:13:13.860Z,1002.96
2022-09-30T02:14:13.857Z,1003.05
2022-09-30T02:15:13.845Z,1002.96
2022-09-30T02:16:13.884Z,1002.94
2022-09-30T02:17:13.877Z,1002.96
2022-09-30T02:18:13.815Z,1003.00
2022-09-30T02:19:13.833Z,1003.04
2022-09-30T02:20:13.779Z,1002.98
2022-09-30T02:21:13.751Z,1003.00
2022-09-30T02:22:13.756Z,1003.04
2022-09-30T02:23:13.725Z,1003.03
2022-09-30T02:24:13.725Z,1003.03
2022-09-30T02:25:13.707Z,1003.02
2022-09-30T02:26:13.687Z,1003.06
2022-09-30T02:27:13.698Z,1003.08
2022-09-30T02:28:13.667Z,1003.05
2022-09-30T02:29:13.660Z,1003.09
2022-09-30T02:30:13.643Z,1003.03
2022-09-30T02:31:13.652Z,1003.13
2022-09-30T02:32:13.688Z,1003.09
2022-09-30T02:33:13.667Z,1003.11
2022-09-30T02:34:13.600Z,1003.12
2022-09-30T02:35:13.586Z,1003.14
2022-09-30T02:36:13.582Z,1003.16
2022-09-30T02:37:13.576Z,1003.14
2022-09-30T02:38:13.557Z,1003.11
2022-09-30T02:39:13.559Z,1003.14
2022-09-30T02:40:13.524Z,1003.10
2022-09-30T02:41:13.527Z,1003.15
2022-09-30T02:42:13.527Z,1003.10
2022-09-30T02:43:13.486Z,1003.16
2022-09-30T02:44:13.490Z,1003.15
2022-09-30T02:45:13.456Z,1003.11
2022-09-30T02:46:13.548Z,1003.17
2022-09-30T02:47:13.510Z,1003.07
2022-09-30T02:48:13.416Z,1003.13
2022-09-30T02:49:13.493Z,1003.06
2022-09-30T02:50:13.414Z,1003.08
2022-09-30T02:51:13.396Z,1003.12
2022-09-30T02:52:13.374Z,1003.04
2022-09-30T02:53:13.383Z,1003.07
2022-09-30T02:54:13.424Z,1003.13
2022-09-30T02:55:13.336Z,1003.13
2022-09-30T02:56:13.349Z,1003.17
2022-09-30T02:57:13.313Z,1003.19
2022-09-30T02:58:13.327Z,1003.19
2022-09-30T02:59:13.315Z,1003.23
2022-09-30T03:00:13.345Z,1003.19
2022-09-30T03:01:13.280Z,1003.23
2022-09-30T03:02:13.312Z,1003.31
2022-09-30T03:03:13.246Z,1003.29
2022-09-30T03:04:13.225Z,1003.29
2022-09-30T03:05:13.245Z,1003.29
2022-09-30T03:06:13.207Z,1003.33
2022-09-30T03:07:13.174Z,1003.34
2022-09-30T03:08:13.174Z,1003.37
2022-09-30T03:09:13.253Z,1003.38
2022-09-30T03:10:13.134Z,1003.36
2022-09-30T03:11:13.135Z,1003.36
2022-09-30T03:12:13.143Z,1003.37
2022-09-30T03:13:13.145Z,1003.37
2022-09-30T03:14:13.116Z,1003.42
2022-09-30T03:15:13.108Z,1003.40
2022-09-30T03:16:14.058Z,1003.39
2022-09-30T03:17:13.075Z,1003.43
2022-09-30T03:18:13.045Z,1003.41
2022-09-30T03:19:13.066Z,1003.47
2022-09-30T03:20:13.036Z,1003.53
2022-09-30T03:21:13.026Z,1003.54
2022-09-30T03:22:13.017Z,1003.51
2022-09-30T03:23:12.972Z,1003.52
2022-09-30T03:24:13.016Z,1003.55
2022-09-30T03:25:12.967Z,1003.60
2022-09-30T03:26:12.941Z,1003.57
2022-09-30T03:27:12.942Z,1003.57
2022-09-30T03:28:12.913Z,1003.57
2022-09-30T03:29:12.904Z,1003.59
2022-09-30T03:30:12.896Z,1003.57
2022-09-30T03:31:12.975Z,1003.61
2022-09-30T03:32:12.875Z,1003.60
2022-09-30T03:33:12.858Z,1003.66
2022-09-30T03:34:12.857Z,1003.67
2022-09-30T03:35:12.835Z,1003.65
2022-09-30T03:36:12.816Z,1003.66
2022-09-30T03:37:12.824Z,1003.66
2022-09-30T03:38:12.794Z,1003.67
2022-09-30T03:39:12.782Z,1003.70
2022-09-30T03:40:12.764Z,1003.69
2022-09-30T03:41:12.773Z,1003.71
2022-09-30T03:42:12.744Z,1003.71
2022-09-30T03:43:12.745Z,1003.70
2022-09-30T03:44:12.713Z,1003.70
2022-09-30T03:45:12.722Z,1003.70
2022-09-30T03:46:12.699Z,1003.65
2022-09-30T03:47:12.685Z,1003.69
2022-09-30T03:48:12.690Z,1003.75
2022-09-30T03:49:12.655Z,1003.63
2022-09-30T03:50:12.635Z,1003.62
2022-09-30T03:51:12.635Z,1003.69
2022-09-30T03:52:12.614Z,1003.69
2022-09-30T03:53:12.668Z,1003.64
2022-09-30T03:54:12.584Z,1003.70
2022-09-30T03:55:12.589Z,1003.69
2022-09-30T03:56:12.561Z,1003.69
2022-09-30T03:57:12.565Z,1003.68
2022-09-30T03:58:12.533Z,1003.65
2022-09-30T03:59:12.535Z,1003.70
2022-09-30T04:00:12.540Z,1003.65
2022-09-30T04:01:12.566Z,1003.71
2022-09-30T04:02:12.536Z,1003.72
2022-09-30T04:03:12.475Z,1003.71
2022-09-30T04:04:12.505Z,1003.70
2022-09-30T04:05:12.453Z,1003.70
2022-09-30T04:06:12.436Z,1003.75
2022-09-30T04:07:12.419Z,1003.71
2022-09-30T04:08:12.404Z,1003.74
2022-09-30T04:09:12.445Z,1003.71
2022-09-30T04:10:12.393Z,1003.74
2022-09-30T04:11:12.383Z,1003.71
2022-09-30T04:12:12.365Z,1003.70
2022-09-30T04:13:12.355Z,1003.76
2022-09-30T04:14:12.335Z,1003.77
2022-09-30T04:15:12.359Z,1003.70
2022-09-30T04:16:12.417Z,1003.77
2022-09-30T04:17:12.307Z,1003.72
2022-09-30T04:18:12.270Z,1003.76
2022-09-30T04:19:12.254Z,1003.73
2022-09-30T04:20:12.261Z,1003.77
2022-09-30T04:21:12.252Z,1003.77
2022-09-30T04:22:12.231Z,1003.73
2022-09-30T04:23:12.212Z,1003.79
2022-09-30T04:24:12.201Z,1003.78
2022-09-30T04:25:12.191Z,1003.79
2022-09-30T04:26:12.193Z,1003.79
2022-09-30T04:27:12.188Z,1003.85
2022-09-30T04:28:12.159Z,1003.83
2022-09-30T04:29:12.156Z,1003.88
2022-09-30T04:30:12.134Z,1003.90
2022-09-30T04:31:12.200Z,1003.93
2022-09-30T04:32:12.128Z,1003.90
2022-09-30T04:33:12.104Z,1003.93
2022-09-30T04:34:12.117Z,1003.93
2022-09-30T04:35:12.066Z,1003.92
2022-09-30T04:36:12.041Z,1003.90
2022-09-30T04:37:12.052Z,1004.04
2022-09-30T04:38:12.040Z,1003.97
2022-09-30T04:39:12.022Z,1004.01
2022-09-30T04:40:12.004Z,1004.02
2022-09-30T04:41:11.991Z,1004.01
2022-09-30T04:42:11.977Z,1004.06
2022-09-30T04:43:11.981Z,1004.09
2022-09-30T04:44:12.014Z,1004.01
2022-09-30T04:45:11.962Z,1004.03
2022-09-30T04:46:11.976Z,1004.09
2022-09-30T04:47:11.913Z,1004.09
2022-09-30T04:48:11.948Z,1004.05
2022-09-30T04:49:11.903Z,1004.08
2022-09-30T04:50:11.889Z,1004.10
2022-09-30T04:51:11.862Z,1004.11
2022-09-30T04:52:11.852Z,1004.12
2022-09-30T04:53:11.848Z,1004.13
2022-09-30T04:54:11.830Z,1004.16
2022-09-30T04:55:11.830Z,1004.13
2022-09-30T04:56:11.813Z,1004.13
2022-09-30T04:57:11.790Z,1004.22
2022-09-30T04:58:11.772Z,1004.23
2022-09-30T04:59:11.773Z,1004.12
2022-09-30T05:00:11.818Z,1004.17
2022-09-30T05:01:11.810Z,1004.23
2022-09-30T05:02:11.780Z,1004.25
2022-09-30T05:03:11.713Z,1004.20
2022-09-30T05:04:11.736Z,1004.25
2022-09-30T05:05:11.725Z,1004.20
2022-09-30T05:06:11.689Z,1004.26
2022-09-30T05:07:11.672Z,1004.32
2022-09-30T05:08:11.640Z,1004.26
2022-09-30T05:09:11.690Z,1004.30
2022-09-30T05:10:11.662Z,1004.35
2022-09-30T05:11:11.613Z,1004.32
2022-09-30T05:12:11.700Z,1004.35
2022-09-30T05:13:11.582Z,1004.41
2022-09-30T05:14:11.579Z,1004.42
2022-09-30T05:15:11.551Z,1004.44
2022-09-30T05:16:11.574Z,1004.42
2022-09-30T05:17:11.565Z,1004.43
2022-09-30T05:18:11.512Z,1004.49
2022-09-30T05:19:11.552Z,1004.50
2022-09-30T05:20:11.500Z,1004.48
2022-09-30T05:21:11.521Z,1004.50
2022-09-30T05:22:11.493Z,1004.49
2022-09-30T05:23:11.464Z,1004.52
2022-09-30T05:24:11.453Z,1004.49
2022-09-30T05:25:11.431Z,1004.49
2022-09-30T05:26:12.811Z,1004.41
2022-09-30T05:27:11.424Z,1004.44
2022-09-30T05:28:11.421Z,1004.42
2022-09-30T05:29:11.441Z,1004.43
2022-09-30T05:30:11.363Z,1004.42
2022-09-30T05:31:11.411Z,1004.47
2022-09-30T05:32:11.339Z,1004.48
2022-09-30T05:33:11.330Z,1004.47
2022-09-30T05:34:11.382Z,1004.45
2022-09-30T05:35:11.300Z,1004.42
2022-09-30T05:36:11.292Z,1004.45
2022-09-30T05:37:11.293Z,1004.47
2022-09-30T05:38:11.270Z,1004.48
2022-09-30T05:39:11.269Z,1004.52
2022-09-30T05:40:11.271Z,1004.54
2022-09-30T05:41:11.255Z,1004.54
2022-09-30T05:42:14.047Z,1004.50
2022-09-30T05:43:11.211Z,1004.56
2022-09-30T05:44:11.200Z,1004.54
2022-09-30T05:45:11.204Z,1004.52
2022-09-30T05:46:11.164Z,1004.54
2022-09-30T05:47:11.156Z,1004.56
2022-09-30T05:48:11.151Z,1004.59
2022-09-30T05:49:11.119Z,1004.60
2022-09-30T05:50:11.163Z,1004.58
2022-09-30T05:51:11.168Z,1004.63
2022-09-30T05:52:11.090Z,1004.62
2022-09-30T05:53:11.079Z,1004.69
2022-09-30T05:54:11.083Z,1004.63
2022-09-30T05:55:11.082Z,1004.70
2022-09-30T05:56:11.044Z,1004.74
2022-09-30T05:57:11.041Z,1004.77
2022-09-30T05:58:11.033Z,1004.75
2022-09-30T05:59:11.025Z,1004.75
2022-09-30T06:00:10.993Z,1004.79
2022-09-30T06:01:13.729Z,1004.77
2022-09-30T06:02:11.075Z,1004.84
2022-09-30T06:03:11.025Z,1004.87
2022-09-30T06:04:10.938Z,1004.94
2022-09-30T06:05:10.939Z,1004.92
2022-09-30T06:06:10.919Z,1004.86
2022-09-30T06:07:10.937Z,1004.92
2022-09-30T06:08:10.939Z,1004.92
2022-09-30T06:09:10.919Z,1004.87
2022-09-30T06:10:10.871Z,1004.80
2022-09-30T06:11:10.886Z,1004.82
2022-09-30T06:12:10.868Z,1004.82
2022-09-30T06:13:10.834Z,1004.84
2022-09-30T06:14:10.832Z,1004.86
2022-09-30T06:15:10.808Z,1004.85
2022-09-30T06:16:10.873Z,1004.88
2022-09-30T06:17:10.799Z,1004.91
2022-09-30T06:18:14.628Z,1004.87
2022-09-30T06:19:11.769Z,1004.95
2022-09-30T06:20:10.743Z,1004.97
2022-09-30T06:21:10.730Z,1004.94
2022-09-30T06:22:10.714Z,1004.94
2022-09-30T06:23:10.703Z,1004.97
2022-09-30T06:24:10.689Z,1005.00
2022-09-30T06:25:10.731Z,1004.97
2022-09-30T06:26:10.658Z,1004.95
2022-09-30T06:27:10.638Z,1004.97
2022-09-30T06:28:10.650Z,1004.91
2022-09-30T06:29:10.618Z,1004.96
2022-09-30T06:30:10.616Z,1004.91
2022-09-30T06:31:10.616Z,1004.96
2022-09-30T06:32:10.602Z,1004.96
2022-09-30T06:33:10.578Z,1005.02
2022-09-30T06:34:10.554Z,1004.95
2022-09-30T06:35:10.541Z,1005.08
2022-09-30T06:36:10.530Z,1005.06
2022-09-30T06:37:10.521Z,1005.10
2022-09-30T06:38:10.517Z,1005.13
2022-09-30T06:39:13.678Z,1005.13
2022-09-30T06:40:10.482Z,1005.15
2022-09-30T06:41:10.486Z,1005.13
2022-09-30T06:42:10.453Z,1005.17
2022-09-30T06:43:10.440Z,1005.19
2022-09-30T06:44:10.444Z,1005.14
2022-09-30T06:45:12.183Z,1005.15
2022-09-30T06:46:16.585Z,1005.16
2022-09-30T06:47:22.560Z,1005.19
2022-09-30T06:48:11.396Z,1005.20
2022-09-30T06:49:13.760Z,1005.20
2022-09-30T06:50:19.325Z,1005.21
2022-09-30T06:51:11.353Z,1005.25
2022-09-30T06:52:10.333Z,1005.25
2022-09-30T06:53:10.350Z,1005.19
2022-09-30T06:54:10.332Z,1005.22
2022-09-30T06:55:10.290Z,1005.26
2022-09-30T06:56:10.301Z,1005.22
2022-09-30T06:57:10.339Z,1005.25
2022-09-30T06:58:10.260Z,1005.29
2022-09-30T06:59:10.258Z,1005.29
2022-09-30T07:00:10.240Z,1005.32
2022-09-30T07:01:10.287Z,1005.31
2022-09-30T07:02:10.227Z,1005.40
2022-09-30T07:03:10.219Z,1005.39
2022-09-30T07:04:10.177Z,1005.40
2022-09-30T07:05:17.277Z,1005.42
2022-09-30T07:06:10.177Z,1005.46
2022-09-30T07:07:10.157Z,1005.43
2022-09-30T07:08:10.127Z,1005.33
2022-09-30T07:09:10.154Z,1005.33
2022-09-30T07:10:10.157Z,1005.34
2022-09-30T07:11:10.106Z,1005.33
2022-09-30T07:12:10.076Z,1005.34
2022-09-30T07:13:10.065Z,1005.35
2022-09-30T07:14:10.035Z,1005.33
2022-09-30T07:15:13.531Z,1005.29
2022-09-30T07:16:10.135Z,1005.28
2022-09-30T07:17:10.017Z,1005.35
2022-09-30T07:18:10.008Z,1005.37
2022-09-30T07:19:09.987Z,1005.37
2022-09-30T07:20:09.966Z,1005.36
2022-09-30T07:21:09.956Z,1005.31
2022-09-30T07:22:09.953Z,1005.32
2022-09-30T07:23:09.926Z,1005.37
2022-09-30T07:24:09.921Z,1005.37
2022-09-30T07:25:09.905Z,1005.42
2022-09-30T07:26:09.895Z,1005.42
2022-09-30T07:27:09.885Z,1005.45
2022-09-30T07:28:10.674Z,1005.44
2022-09-30T07:29:10.670Z,1005.40
2022-09-30T07:30:16.146Z,1005.40
2022-09-30T07:31:31.370Z,1005.43
2022-09-30T07:32:10.843Z,1005.41
2022-09-30T07:33:09.826Z,1005.44
2022-09-30T07:34:09.799Z,1005.46
2022-09-30T07:35:09.799Z,1005.43
2022-09-30T07:36:10.080Z,1005.41
2022-09-30T07:37:09.746Z,1005.41
2022-09-30T07:38:09.750Z,1005.45
2022-09-30T07:39:09.730Z,1005.41
2022-09-30T07:40:09.708Z,1005.41
2022-09-30T07:41:09.693Z,1005.43
2022-09-30T07:42:09.689Z,1005.40
2022-09-30T07:43:09.677Z,1005.43
2022-09-30T07:44:09.667Z,1005.46
2022-09-30T07:45:09.649Z,1005.46
2022-09-30T07:46:09.725Z,1005.47
2022-09-30T07:47:09.638Z,1005.42
2022-09-30T07:48:09.697Z,1005.48
2022-09-30T07:49:09.608Z,1005.50
2022-09-30T07:50:09.599Z,1005.47
2022-09-30T07:51:09.570Z,1005.45
2022-09-30T07:52:09.559Z,1005.47
2022-09-30T07:53:09.566Z,1005.41
2022-09-30T07:54:09.545Z,1005.43
2022-09-30T07:55:09.517Z,1005.43
2022-09-30T07:56:09.517Z,1005.43
2022-09-30T07:57:11.164Z,1005.48
2022-09-30T07:58:09.536Z,1005.46
2022-09-30T07:59:09.486Z,1005.44
2022-09-30T08:00:37.461Z,1005.46
2022-09-30T08:01:10.518Z,1005.47
2022-09-30T08:02:09.463Z,1005.46
2022-09-30T08:03:09.489Z,1005.44
2022-09-30T08:04:09.408Z,1005.47
2022-09-30T08:05:09.675Z,1005.51
2022-09-30T08:06:09.480Z,1005.50
2022-09-30T08:07:09.369Z,1005.52
2022-09-30T08:08:09.348Z,1005.54
2022-09-30T08:09:09.374Z,1005.60
2022-09-30T08:10:09.348Z,1005.66
2022-09-30T08:11:09.364Z,1005.67
2022-09-30T08:12:09.315Z,1005.68
2022-09-30T08:13:09.286Z,1005.66
2022-09-30T08:14:09.306Z,1005.74
2022-09-30T08:15:09.266Z,1005.72
2022-09-30T08:16:09.296Z,1005.70
2022-09-30T08:17:09.239Z,1005.70
2022-09-30T08:18:09.228Z,1005.71
2022-09-30T08:19:09.209Z,1005.73
2022-09-30T08:20:13.079Z,1005.75
2022-09-30T08:21:10.187Z,1005.77
2022-09-30T08:22:09.412Z,1005.69
2022-09-30T08:23:09.224Z,1005.71
2022-09-30T08:24:09.149Z,1005.74
2022-09-30T08:25:09.138Z,1005.77
2022-09-30T08:26:09.139Z,1005.74
2022-09-30T08:27:09.143Z,1005.76
2022-09-30T08:28:09.099Z,1005.76
2022-09-30T08:29:09.082Z,1005.76
2022-09-30T08:30:09.081Z,1005.77
2022-09-30T08:31:09.118Z,1005.76
2022-09-30T08:32:09.115Z,1005.76
2022-09-30T08:33:09.148Z,1005.78
2022-09-30T08:34:09.016Z,1005.77
2022-09-30T08:35:08.999Z,1005.80
2022-09-30T08:36:08.999Z,1005.80
2022-09-30T08:37:09.803Z,1005.71
2022-09-30T08:38:08.970Z,1005.74
2022-09-30T08:39:08.939Z,1005.71
2022-09-30T08:40:08.951Z,1005.76
2022-09-30T08:41:08.940Z,1005.78
2022-09-30T08:42:25.150Z,1005.76
2022-09-30T08:43:09.921Z,1005.79
2022-09-30T08:44:08.899Z,1005.77
2022-09-30T08:45:08.892Z,1005.81
2022-09-30T08:46:09.021Z,1005.82
2022-09-30T08:47:08.860Z,1005.80
2022-09-30T08:48:08.884Z,1005.85
2022-09-30T08:49:08.820Z,1005.81
2022-09-30T08:50:08.811Z,1005.88
2022-09-30T08:51:08.807Z,1005.88
2022-09-30T08:52:12.725Z,1005.85
2022-09-30T08:53:09.819Z,1005.86
2022-09-30T08:54:08.844Z,1005.85
2022-09-30T08:55:08.758Z,1005.83
2022-09-30T08:56:08.741Z,1005.86
2022-09-30T08:57:08.730Z,1005.85
2022-09-30T08:58:08.729Z,1005.84
2022-09-30T08:59:08.782Z,1005.81
2022-09-30T09:00:08.691Z,1005.83
2022-09-30T09:01:08.827Z,1005.87
2022-09-30T09:02:08.711Z,1005.85
2022-09-30T09:03:08.651Z,1005.84
2022-09-30T09:04:08.641Z,1005.90
2022-09-30T09:05:08.632Z,1005.84
2022-09-30T09:06:08.612Z,1005.90
2022-09-30T09:07:08.590Z,1005.86
2022-09-30T09:08:10.251Z,1005.84
2022-09-30T09:09:08.580Z,1005.87
2022-09-30T09:10:08.560Z,1005.82
2022-09-30T09:11:08.541Z,1005.89
2022-09-30T09:12:08.572Z,1005.90
2022-09-30T09:13:08.512Z,1005.92
2022-09-30T09:14:08.512Z,1005.94
2022-09-30T09:15:08.504Z,1005.92
2022-09-30T09:16:08.532Z,1005.94
2022-09-30T09:17:13.101Z,1005.91
2022-09-30T09:18:23.332Z,1005.93
2022-09-30T09:19:09.442Z,1005.97
2022-09-30T09:20:08.431Z,1005.95
2022-09-30T09:21:08.430Z,1005.93
2022-09-30T09:22:08.399Z,1005.91
2022-09-30T09:23:08.402Z,1005.93
2022-09-30T09:24:08.374Z,1005.90
2022-09-30T09:25:08.365Z,1005.86
2022-09-30T09:26:08.354Z,1005.88
2022-09-30T09:27:08.437Z,1005.86
2022-09-30T09:28:08.391Z,1005.84
2022-09-30T09:29:08.382Z,1005.84
2022-09-30T09:30:08.305Z,1005.84
2022-09-30T09:31:08.344Z,1005.86
2022-09-30T09:32:08.304Z,1005.83
2022-09-30T09:33:08.253Z,1005.85
2022-09-30T09:34:08.262Z,1005.79
2022-09-30T09:35:08.232Z,1005.87
2022-09-30T09:36:08.237Z,1005.82
2022-09-30T09:37:08.289Z,1005.81
2022-09-30T09:38:08.546Z,1005.81
2022-09-30T09:39:08.197Z,1005.81
2022-09-30T09:40:08.172Z,1005.79
2022-09-30T09:41:08.176Z,1005.83
2022-09-30T09:42:08.145Z,1005.77
2022-09-30T09:43:08.126Z,1005.83
2022-09-30T09:44:08.124Z,1005.85
2022-09-30T09:45:08.128Z,1005.89
2022-09-30T09:46:08.246Z,1005.89
2022-09-30T09:47:08.074Z,1005.87
2022-09-30T09:48:08.073Z,1005.91
2022-09-30T09:49:08.044Z,1005.87
2022-09-30T09:50:08.055Z,1005.87
2022-09-30T09:51:08.035Z,1005.89
2022-09-30T09:52:08.016Z,1005.87
2022-09-30T09:53:07.997Z,1005.89
2022-09-30T09:54:09.446Z,1005.86
2022-09-30T09:55:07.989Z,1005.80
2022-09-30T09:56:07.987Z,1005.74
2022-09-30T09:57:07.956Z,1005.75
2022-09-30T09:58:07.946Z,1005.78
2022-09-30T09:59:07.927Z,1005.73
2022-09-30T10:00:07.923Z,1005.72
2022-09-30T10:01:09.583Z,1005.74
2022-09-30T10:02:07.948Z,1005.75
2022-09-30T10:03:07.865Z,1005.73
2022-09-30T10:04:07.886Z,1005.75
2022-09-30T10:05:07.845Z,1005.82
2022-09-30T10:06:07.825Z,1005.81
2022-09-30T10:07:07.806Z,1005.82
2022-09-30T10:08:07.808Z,1005.78
2022-09-30T10:09:07.799Z,1005.77
2022-09-30T10:10:07.797Z,1005.78
2022-09-30T10:11:07.785Z,1005.75
2022-09-30T10:12:07.802Z,1005.70
2022-09-30T10:13:07.746Z,1005.68
2022-09-30T10:14:07.748Z,1005.72
2022-09-30T10:15:07.740Z,1005.65
2022-09-30T10:16:07.718Z,1005.68
2022-09-30T10:17:07.677Z,1005.64
2022-09-30T10:18:07.802Z,1005.62
2022-09-30T10:19:09.702Z,1005.65
2022-09-30T10:20:07.689Z,1005.72
2022-09-30T10:21:07.647Z,1005.68
2022-09-30T10:22:07.633Z,1005.71
2022-09-30T10:23:07.718Z,1005.70
2022-09-30T10:24:07.620Z,1005.65
2022-09-30T10:25:08.419Z,1005.67
2022-09-30T10:26:07.582Z,1005.69
2022-09-30T10:27:07.588Z,1005.66
2022-09-30T10:28:07.641Z,1005.66
2022-09-30T10:29:07.536Z,1005.65
2022-09-30T10:30:07.688Z,1005.65
2022-09-30T10:31:07.525Z,1005.68
2022-09-30T10:32:08.407Z,1005.70
2022-09-30T10:33:07.518Z,1005.65
2022-09-30T10:34:07.473Z,1005.66
2022-09-30T10:35:07.677Z,1005.71
2022-09-30T10:36:07.471Z,1005.67
2022-09-30T10:37:07.428Z,1005.67
2022-09-30T10:38:07.420Z,1005.70
2022-09-30T10:39:07.619Z,1005.66
2022-09-30T10:40:07.435Z,1005.70
2022-09-30T10:41:07.380Z,1005.64
2022-09-30T10:42:07.380Z,1005.67
2022-09-30T10:43:07.381Z,1005.64
2022-09-30T10:44:07.343Z,1005.61
2022-09-30T10:45:07.330Z,1005.62
2022-09-30T10:46:25.197Z,1005.59
2022-09-30T10:47:08.329Z,1005.61
2022-09-30T10:48:07.282Z,1005.58
2022-09-30T10:49:07.270Z,1005.57
2022-09-30T10:50:07.261Z,1005.52
2022-09-30T10:51:07.303Z,1005.53
2022-09-30T10:52:07.232Z,1005.57
2022-09-30T10:53:07.213Z,1005.51
2022-09-30T10:54:07.210Z,1005.52
2022-09-30T10:55:13.826Z,1005.48
2022-09-30T10:56:08.222Z,1005.46
2022-09-30T10:57:07.174Z,1005.53
2022-09-30T10:58:07.151Z,1005.53
2022-09-30T10:59:07.153Z,1005.52
2022-09-30T11:00:07.123Z,1005.55
2022-09-30T11:01:07.177Z,1005.51
2022-09-30T11:02:07.137Z,1005.48
2022-09-30T11:03:07.164Z,1005.49
2022-09-30T11:04:07.104Z,1005.50
2022-09-30T11:05:07.073Z,1005.49
2022-09-30T11:06:07.082Z,1005.52
2022-09-30T11:07:07.044Z,1005.50
2022-09-30T11:08:07.066Z,1005.46
2022-09-30T11:09:07.023Z,1005.48
2022-09-30T11:10:07.046Z,1005.46
2022-09-30T11:11:09.426Z,1005.43
2022-09-30T11:12:06.972Z,1005.43
2022-09-30T11:13:06.954Z,1005.32
2022-09-30T11:14:06.950Z,1005.34
2022-09-30T11:15:06.934Z,1005.32
2022-09-30T11:16:07.011Z,1005.38
2022-09-30T11:17:06.903Z,1005.36
2022-09-30T11:18:06.893Z,1005.37
2022-09-30T11:19:06.873Z,1005.37
2022-09-30T11:20:06.884Z,1005.39
2022-09-30T11:21:06.875Z,1005.38
2022-09-30T11:22:06.865Z,1005.36
2022-09-30T11:23:06.837Z,1005.38
2022-09-30T11:24:06.827Z,1005.40
2022-09-30T11:25:11.008Z,1005.46
2022-09-30T11:26:06.816Z,1005.37
2022-09-30T11:27:06.816Z,1005.38
2022-09-30T11:28:06.844Z,1005.33
2022-09-30T11:29:06.748Z,1005.33
2022-09-30T11:30:06.736Z,1005.31
2022-09-30T11:31:07.328Z,1005.28
2022-09-30T11:32:06.789Z,1005.32
2022-09-30T11:33:06.696Z,1005.28
2022-09-30T11:34:06.695Z,1005.27
2022-09-30T11:35:06.675Z,1005.28
2022-09-30T11:36:06.660Z,1005.29
2022-09-30T11:37:06.653Z,1005.28
2022-09-30T11:38:06.649Z,1005.24
2022-09-30T11:39:06.627Z,1005.24
2022-09-30T11:40:06.608Z,1005.26
2022-09-30T11:41:06.618Z,1005.23
2022-09-30T11:42:06.586Z,1005.28
2022-09-30T11:43:08.376Z,1005.28
2022-09-30T11:44:06.557Z,1005.27
2022-09-30T11:45:06.547Z,1005.26
2022-09-30T11:46:06.548Z,1005.30
2022-09-30T11:47:06.527Z,1005.20
2022-09-30T11:48:06.498Z,1005.23
2022-09-30T11:49:06.508Z,1005.22
2022-09-30T11:50:06.477Z,1005.14
2022-09-30T11:51:06.497Z,1005.19
2022-09-30T11:52:06.460Z,1005.26
2022-09-30T11:53:06.451Z,1005.22
2022-09-30T11:54:06.440Z,1005.20
2022-09-30T11:55:06.501Z,1005.20
2022-09-30T11:56:06.409Z,1005.15
2022-09-30T11:57:06.410Z,1005.15
2022-09-30T11:58:28.660Z,1005.18
2022-09-30T11:59:07.382Z,1005.20
2022-09-30T12:00:06.358Z,1005.21
2022-09-30T12:01:06.358Z,1005.24
2022-09-30T12:02:06.391Z,1005.21
2022-09-30T12:03:10.022Z,1005.24
2022-09-30T12:04:06.319Z,1005.21
2022-09-30T12:05:06.301Z,1005.16